Time;durP1;ratioP1;P1;durP2;ratioP2;P2;SDS_P1;SDS_P2;PMS_P1;PMS_P2;Temp;Humidity;BMP_temperature;BMP_pressure;BME280_temperature;BME280_humidity;BME280_pressure;Samples;Min_cycle;Max_cycle;Signal;HPM_P1;HPM_P2
2021/06/19 00:01:26;;;;;;;4.68;2.08;;;;;;;13.74;51.28;100243.56;5039910;28;20045;-82
2021/06/19 00:03:52;;;;;;;5.22;2.10;;;;;;;13.64;51.58;100240.75;5038340;28;20429;-81
2021/06/19 00:06:18;;;;;;;3.85;2.15;;;;;;;13.69;51.14;100243.06;5021791;28;20048;-80
2021/06/19 00:08:44;;;;;;;4.50;2.58;;;;;;;13.71;51.13;100252.72;5022002;28;20110;-82
2021/06/19 00:11:10;;;;;;;9.05;2.20;;;;;;;13.72;51.25;100248.19;5038363;28;20411;-81
2021/06/19 00:13:36;;;;;;;6.75;2.00;;;;;;;13.69;51.48;100252.00;5005622;28;20046;-81
2021/06/19 00:16:05;;;;;;;8.02;2.42;;;;;;;13.73;51.28;100255.31;5023719;28;20539;-82
2021/06/19 00:18:31;;;;;;;4.07;2.23;;;;;;;13.68;50.97;100239.53;5041842;28;20063;-80
2021/06/19 00:20:58;;;;;;;11.77;2.75;;;;;;;13.89;51.07;100241.50;5041695;28;20094;-82
2021/06/19 00:23:23;;;;;;;7.50;2.35;;;;;;;13.85;51.06;100248.97;5041944;28;20044;-82
2021/06/19 00:25:49;;;;;;;3.20;1.98;;;;;;;13.95;50.64;100243.69;5041395;28;20567;-81
2021/06/19 00:28:15;;;;;;;5.43;2.25;;;;;;;14.03;50.74;100262.78;5008791;28;20045;-81
2021/06/19 00:30:41;;;;;;;6.30;2.35;;;;;;;14.05;50.51;100239.28;5024999;28;20040;-83
2021/06/19 00:33:11;;;;;;;5.40;2.40;;;;;;;14.10;50.46;100261.28;5027502;28;20057;-83
2021/06/19 00:35:37;;;;;;;3.78;3.00;;;;;;;14.09;50.04;100256.88;5025398;28;20048;-80
2021/06/19 00:38:03;;;;;;;4.85;2.53;;;;;;;14.09;50.18;100271.19;5025082;28;20033;-82
2021/06/19 00:40:29;;;;;;;10.10;3.08;;;;;;;14.13;50.33;100263.72;5041490;28;20036;-83
2021/06/19 00:43:00;;;;;;;7.45;2.90;;;;;;;14.17;50.06;100265.19;5025359;28;20048;-82
2021/06/19 00:45:27;;;;;;;3.95;2.85;;;;;;;14.15;49.74;100256.41;5045028;28;20135;-81
2021/06/19 00:47:53;;;;;;;5.90;3.33;;;;;;;14.32;49.74;100263.94;5050935;28;20609;-81
2021/06/19 00:50:20;;;;;;;8.10;3.40;;;;;;;14.46;49.34;100275.44;5050298;28;20063;-82
2021/06/19 00:52:46;;;;;;;7.95;3.67;;;;;;;14.45;49.40;100266.50;5049466;28;20048;-82
2021/06/19 00:55:12;;;;;;;10.20;4.05;;;;;;;14.45;49.31;100252.22;5064476;28;20041;-83
2021/06/19 00:57:38;;;;;;;9.95;3.42;;;;;;;14.61;49.13;100263.44;5041939;28;20048;-81
2021/06/19 01:00:05;;;;;;;7.28;2.90;;;;;;;14.59;48.99;100260.00;5024963;28;20131;-83
2021/06/19 01:02:32;;;;;;;10.93;3.80;;;;;;;14.65;48.51;100264.91;5041450;28;20044;-82
2021/06/19 01:04:59;;;;;;;6.78;4.28;;;;;;;14.79;48.72;100271.84;5024642;28;20147;-82
2021/06/19 01:07:25;;;;;;;7.28;4.30;;;;;;;14.88;48.26;100276.44;5024705;28;20461;-81
2021/06/19 01:09:51;;;;;;;6.03;4.50;;;;;;;14.61;48.47;100258.06;5024517;28;20056;-82
2021/06/19 01:12:23;;;;;;;5.32;4.25;;;;;;;14.76;48.51;100288.25;5024373;28;20122;-80
2021/06/19 01:14:51;;;;;;;10.48;4.70;;;;;;;14.79;48.38;100272.69;5026653;28;20044;-82
2021/06/19 01:17:19;;;;;;;7.90;5.25;;;;;;;14.85;48.21;100270.47;5041757;28;20051;-81
2021/06/19 01:20:00;;;;;;;7.47;5.32;;;;;;;14.79;48.48;100283.47;5009382;28;20041;-81
2021/06/19 01:22:26;;;;;;;11.23;5.68;;;;;;;14.77;48.68;100279.19;5027754;28;20053;-80
2021/06/19 01:24:52;;;;;;;11.55;5.82;;;;;;;14.74;48.63;100260.59;5041598;28;20048;-79
2021/06/19 01:27:18;;;;;;;9.52;6.55;;;;;;;14.90;48.39;100279.88;5044738;28;20047;-80
2021/06/19 01:29:44;;;;;;;12.48;6.45;;;;;;;14.96;48.28;100273.13;5049263;28;20036;-79
2021/06/19 01:32:11;;;;;;;13.52;6.85;;;;;;;14.87;48.73;100287.38;5026623;28;20468;-81
2021/06/19 01:34:37;;;;;;;10.02;6.05;;;;;;;14.88;48.73;100289.91;5024581;28;20040;-79
2021/06/19 01:37:03;;;;;;;12.00;6.57;;;;;;;14.91;48.49;100286.97;5024322;28;20511;-81
2021/06/19 01:39:29;;;;;;;11.68;7.18;;;;;;;14.96;48.34;100289.28;5060008;28;20040;-81
2021/06/19 01:41:55;;;;;;;10.98;7.32;;;;;;;15.00;48.23;100290.72;5051604;28;20040;-81
2021/06/19 01:44:21;;;;;;;12.52;8.40;;;;;;;14.96;48.79;100294.66;5077095;28;20064;-81
2021/06/19 01:46:47;;;;;;;16.17;8.40;;;;;;;14.86;48.93;100285.66;5073995;28;20503;-80
2021/06/19 01:49:13;;;;;;;14.52;8.95;;;;;;;14.79;49.39;100296.06;5039164;28;20044;-80
2021/06/19 01:51:38;;;;;;;18.10;9.77;;;;;;;14.82;49.41;100275.13;5043038;28;20039;-81
2021/06/19 01:54:05;;;;;;;22.58;9.32;;;;;;;14.88;49.54;100287.22;5005655;28;20044;-79
2021/06/19 01:56:30;;;;;;;15.18;9.73;;;;;;;14.83;49.74;100286.75;5049813;28;20122;-84
2021/06/19 01:58:56;;;;;;;14.80;8.95;;;;;;;14.80;49.79;100274.41;5032258;28;20037;-82
2021/06/19 02:01:23;;;;;;;16.58;8.63;;;;;;;14.88;49.95;100264.84;5057352;28;20052;-82
2021/06/19 02:03:49;;;;;;;17.25;9.15;;;;;;;14.95;50.18;100276.81;5042856;28;20068;-82
2021/06/19 02:06:15;;;;;;;17.05;9.10;;;;;;;15.12;50.19;100292.41;5058028;28;20071;-81
2021/06/19 02:08:41;;;;;;;13.07;8.80;;;;;;;15.20;50.25;100286.38;5037908;28;20407;-80
2021/06/19 02:11:07;;;;;;;16.77;8.90;;;;;;;15.22;49.44;100289.78;5047311;28;20119;-86
2021/06/19 02:13:35;;;;;;;15.98;8.52;;;;;;;15.36;49.56;100296.72;5058832;28;20032;-79
2021/06/19 02:16:01;;;;;;;22.70;9.43;;;;;;;15.45;49.32;100312.09;5040630;28;20572;-82
2021/06/19 02:18:27;;;;;;;15.65;8.75;;;;;;;15.51;48.92;100308.88;5040149;28;20037;-81
2021/06/19 02:20:53;;;;;;;14.32;9.25;;;;;;;15.48;48.43;100295.66;5007642;28;20051;-82
2021/06/19 02:23:20;;;;;;;15.70;9.43;;;;;;;15.49;48.37;100306.28;5024273;28;20399;-82
2021/06/19 02:25:51;;;;;;;20.75;9.52;;;;;;;15.55;47.26;100308.47;5023900;28;20482;-83
2021/06/19 02:28:17;;;;;;;15.20;9.13;;;;;;;15.51;47.11;100298.94;5025052;28;20049;-82
2021/06/19 02:30:45;;;;;;;19.60;10.25;;;;;;;15.73;47.17;100306.09;5023118;28;20051;-81
2021/06/19 02:33:11;;;;;;;14.57;8.73;;;;;;;15.84;46.79;100307.00;5056541;28;20051;-82
2021/06/19 02:35:38;;;;;;;13.10;9.43;;;;;;;16.01;46.33;100309.06;5055989;28;20482;-82
2021/06/19 02:38:05;;;;;;;13.90;9.50;;;;;;;15.98;46.32;100309.31;5023006;28;20391;-81
2021/06/19 02:40:32;;;;;;;22.05;10.15;;;;;;;15.92;46.51;100304.50;5039708;28;20055;-80
2021/06/19 02:42:58;;;;;;;15.38;9.80;;;;;;;16.13;46.24;100315.22;5055848;28;20560;-82
2021/06/19 02:45:24;;;;;;;14.45;9.30;;;;;;;16.15;45.76;100318.66;5039391;28;20517;-82
2021/06/19 02:47:51;;;;;;;17.80;9.18;;;;;;;16.13;45.47;100318.78;5039586;28;20060;-82
2021/06/19 02:50:19;;;;;;;15.18;8.85;;;;;;;16.19;45.93;100339.81;5039290;28;20051;-81
2021/06/19 02:52:45;;;;;;;17.27;10.57;;;;;;;16.28;45.82;100340.84;5056279;28;20044;-80
2021/06/19 02:55:13;;;;;;;16.83;9.32;;;;;;;16.34;45.69;100334.94;5022549;28;20047;-80
2021/06/19 02:57:39;;;;;;;15.68;8.57;;;;;;;16.39;45.50;100345.31;5055754;28;20090;-80
2021/06/19 03:00:07;;;;;;;17.70;8.50;;;;;;;16.45;45.35;100350.19;5022732;28;20041;-81
2021/06/19 03:02:33;;;;;;;15.85;8.40;;;;;;;16.52;45.44;100327.06;5022901;28;20498;-83
2021/06/19 03:04:59;;;;;;;12.68;9.25;;;;;;;16.68;45.38;100340.88;5022529;28;20143;-82
2021/06/19 03:07:26;;;;;;;14.90;8.80;;;;;;;16.62;45.20;100340.56;5040260;28;20048;-84
2021/06/19 03:09:53;;;;;;;13.50;9.07;;;;;;;16.68;45.37;100340.88;5025159;28;20048;-80
2021/06/19 03:12:19;;;;;;;17.65;8.70;;;;;;;16.93;44.97;100346.81;5056712;28;20529;-78
2021/06/19 03:14:45;;;;;;;14.68;8.50;;;;;;;16.96;44.79;100343.81;5055638;28;20055;-83
2021/06/19 03:17:12;;;;;;;14.48;8.65;;;;;;;17.00;44.18;100339.84;5038468;28;20521;-81
2021/06/19 03:19:39;;;;;;;16.55;8.80;;;;;;;17.16;44.29;100334.75;5038889;28;20048;-80
2021/06/19 03:22:05;;;;;;;14.93;9.32;;;;;;;17.19;44.75;100350.69;5005833;28;20044;-79
2021/06/19 03:24:40;;;;;;;15.15;8.82;;;;;;;17.38;43.97;100351.69;5021960;28;20094;-81
2021/06/19 03:27:08;;;;;;;14.65;8.68;;;;;;;17.48;43.98;100352.53;5022533;28;20040;-83
2021/06/19 03:29:34;;;;;;;13.80;9.10;;;;;;;17.48;44.20;100341.72;5005901;28;20116;-78
2021/06/19 03:32:00;;;;;;;15.48;8.88;;;;;;;17.69;43.99;100350.53;5022014;28;20036;-83
2021/06/19 03:34:28;;;;;;;16.23;10.15;;;;;;;17.92;44.01;100355.66;5038280;28;20424;-77
2021/06/19 03:37:01;;;;;;;11.15;6.88;;;;;;;18.03;42.64;100358.19;5037533;28;20052;-80
2021/06/19 03:39:27;;;;;;;15.80;9.30;;;;;;;18.13;42.92;100350.91;5023421;28;20047;-79
2021/06/19 03:41:54;;;;;;;15.63;9.73;;;;;;;18.05;43.17;100342.66;5022076;28;20118;-77
2021/06/19 03:44:23;;;;;;;20.95;9.23;;;;;;;18.04;43.47;100330.13;5021807;28;20139;-76
2021/06/19 03:46:49;;;;;;;17.15;9.80;;;;;;;18.11;43.70;100339.38;5037990;28;20503;-77
2021/06/19 03:49:15;;;;;;;20.02;9.90;;;;;;;18.28;43.38;100347.72;5037213;28;20037;-79
2021/06/19 03:51:41;;;;;;;13.02;8.50;;;;;;;18.49;43.21;100345.66;5041263;28;20404;-79
2021/06/19 03:54:07;;;;;;;16.60;9.52;;;;;;;18.62;43.27;100345.31;5025406;28;20465;-77
2021/06/19 03:56:34;;;;;;;17.13;8.52;;;;;;;18.77;42.98;100346.56;5042086;28;20091;-79
2021/06/19 03:58:59;;;;;;;16.58;7.43;;;;;;;18.91;42.02;100346.00;5041403;28;20570;-79
2021/06/19 04:01:25;;;;;;;11.95;7.00;;;;;;;18.89;41.39;100339.91;5042490;28;20123;-78
2021/06/19 04:03:52;;;;;;;10.57;6.63;;;;;;;18.67;41.40;100324.88;4991902;28;20129;-77
2021/06/19 04:06:17;;;;;;;11.75;6.47;;;;;;;18.85;41.35;100326.84;5060059;28;20409;-83
2021/06/19 04:08:44;;;;;;;12.68;4.95;;;;;;;18.85;40.34;100316.00;5025630;28;20093;-79
2021/06/19 04:11:10;;;;;;;11.25;6.80;;;;;;;18.84;40.68;100322.41;5062284;28;20127;-81
2021/06/19 04:13:36;;;;;;;10.07;6.47;;;;;;;18.88;40.75;100326.50;5044238;28;20048;-82
2021/06/19 04:16:03;;;;;;;16.40;6.00;;;;;;;19.00;40.88;100305.50;5041799;28;20060;-78
2021/06/19 04:18:29;;;;;;;8.50;5.90;;;;;;;19.14;40.73;100313.94;5041142;28;20052;-78
2021/06/19 04:20:55;;;;;;;12.88;6.30;;;;;;;19.13;40.09;100306.78;5024681;28;20057;-76
2021/06/19 04:23:21;;;;;;;9.80;6.20;;;;;;;19.36;39.94;100319.88;5041361;28;20469;-78
2021/06/19 04:25:47;;;;;;;12.88;5.80;;;;;;;19.50;39.95;100319.34;5025388;28;20131;-79
2021/06/19 04:28:13;;;;;;;8.52;5.70;;;;;;;19.64;39.99;100316.09;5049104;28;20174;-81
2021/06/19 04:30:39;;;;;;;12.05;5.65;;;;;;;19.74;39.71;100310.56;5041436;28;20372;-78
2021/06/19 04:33:05;;;;;;;9.07;5.35;;;;;;;19.97;39.39;100310.91;4991535;28;20076;-82
2021/06/19 04:35:31;;;;;;;7.85;3.67;;;;;;;20.13;37.36;100310.16;5041444;28;20049;-82
2021/06/19 04:37:57;;;;;;;12.52;3.95;;;;;;;20.06;37.61;100290.94;5075691;28;20174;-85
2021/06/19 04:40:38;;;;;;;13.13;4.55;;;;;;;20.24;37.68;100307.16;5026721;28;20574;-84
2021/06/19 04:43:09;;;;;;;8.27;4.00;;;;;;;20.37;37.54;100301.28;5012114;28;20090;-80
2021/06/19 04:45:36;;;;;;;4.78;2.50;;;;;;;20.30;36.22;100316.50;5070350;28;20532;-82
2021/06/19 04:48:04;;;;;;;4.22;2.80;;;;;;;20.37;36.40;100304.00;5058999;28;20036;-91
2021/06/19 04:50:34;;;;;;;6.97;3.40;;;;;;;20.62;36.32;100310.44;5010533;28;20135;-84
2021/06/19 04:53:00;;;;;;;4.47;3.00;;;;;;;20.74;36.33;100319.97;5042145;28;20044;-86
2021/06/19 04:55:26;;;;;;;3.42;2.10;;;;;;;20.58;35.01;100322.63;5058250;28;20040;-84
2021/06/19 04:57:57;;;;;;;4.20;2.28;;;;;;;20.40;34.86;100317.25;5041082;28;20515;-83
2021/06/19 05:00:24;;;;;;;3.97;1.50;;;;;;;20.57;35.06;100297.34;5041415;28;20519;-80
2021/06/19 05:02:50;;;;;;;7.70;2.13;;;;;;;20.89;34.62;100298.44;5023949;28;20041;-80
2021/06/19 05:05:16;;;;;;;4.10;1.73;;;;;;;21.32;34.63;100301.91;5049567;28;20107;-80
2021/06/19 05:07:43;;;;;;;6.57;1.30;;;;;;;21.51;32.32;100301.63;5007800;28;20079;-79
2021/06/19 05:10:10;;;;;;;3.95;1.60;;;;;;;21.52;32.29;100297.88;5040916;28;20051;-86
2021/06/19 05:12:42;;;;;;;5.32;1.42;;;;;;;21.42;31.19;100297.19;5057008;28;20079;-83
2021/06/19 05:15:09;;;;;;;4.07;2.25;;;;;;;21.35;31.17;100285.28;5024426;28;20044;-83
2021/06/19 05:17:35;;;;;;;4.15;1.30;;;;;;;21.38;31.80;100293.09;5056621;28;20143;-83
2021/06/19 05:20:01;;;;;;;1.50;1.33;;;;;;;21.66;32.48;100295.47;5024659;28;20120;-80
2021/06/19 05:22:27;;;;;;;1.60;1.50;;;;;;;21.87;32.13;100274.03;5040087;28;20060;-80
2021/06/19 05:24:53;;;;;;;1.60;1.50;;;;;;;22.00;32.19;100274.34;5056583;28;20094;-79
2021/06/19 05:27:19;;;;;;;3.97;1.60;;;;;;;21.78;31.54;100277.78;5056326;28;20149;-79
2021/06/19 05:29:44;;;;;;;2.83;1.58;;;;;;;21.72;32.01;100283.91;5023456;28;20127;-80
2021/06/19 05:32:10;;;;;;;4.78;1.52;;;;;;;21.46;32.70;100281.38;5039354;28;20148;-80
2021/06/19 05:34:37;;;;;;;3.00;1.77;;;;;;;21.29;33.01;100286.78;5040265;28;20403;-80
2021/06/19 05:37:03;;;;;;;2.55;1.55;;;;;;;21.34;33.76;100291.75;5008045;28;20364;-79
2021/06/19 05:39:29;;;;;;;4.97;1.45;;;;;;;21.62;33.96;100291.41;5001646;28;20505;-82
2021/06/19 05:41:56;;;;;;;6.50;1.90;;;;;;;21.96;33.36;100294.75;5039539;28;20096;-78
2021/06/19 05:44:23;;;;;;;2.38;1.73;;;;;;;21.76;34.44;100285.25;5022745;28;20063;-79
2021/06/19 05:46:49;;;;;;;1.42;1.23;;;;;;;21.92;35.29;100287.94;5038818;28;20520;-80
2021/06/19 05:49:15;;;;;;;3.40;1.80;;;;;;;22.01;34.48;100286.09;5039790;28;20052;-81
2021/06/19 05:51:41;;;;;;;4.32;2.45;;;;;;;22.21;34.63;100286.56;5006934;28;20489;-80
2021/06/19 05:54:07;;;;;;;3.35;1.52;;;;;;;22.24;34.51;100295.22;5023116;28;20130;-79
2021/06/19 05:56:33;;;;;;;6.10;1.80;;;;;;;22.27;34.08;100302.22;5039612;28;20150;-78
2021/06/19 05:59:00;;;;;;;1.58;1.35;;;;;;;22.32;34.23;100294.34;5055545;28;20071;-78
2021/06/19 06:01:29;;;;;;;2.72;1.42;;;;;;;22.19;34.17;100277.69;5038662;28;20143;-79
2021/06/19 06:03:56;;;;;;;;;;;;;;;22.10;34.34;100284.19;5040185;28;20066;-78
2021/06/19 06:06:22;;;;;;;4.50;1.60;;;;;;;21.62;35.00;100281.34;5072566;28;20023;-78
2021/06/19 06:08:47;;;;;;;20.58;1.45;;;;;;;21.63;34.41;100271.34;5055484;28;20127;-78
2021/06/19 06:11:13;;;;;;;2.40;1.85;;;;;;;21.97;33.24;100274.69;5055695;28;20471;-82
2021/06/19 06:13:40;;;;;;;3.67;1.30;;;;;;;21.95;32.52;100270.44;5022141;28;20044;-80
2021/06/19 06:16:06;;;;;;;1.60;1.30;;;;;;;21.66;32.89;100265.53;5055623;28;20051;-79
2021/06/19 06:18:32;;;;;;;7.20;1.20;;;;;;;21.57;33.40;100251.09;5055854;28;20399;-79
2021/06/19 06:20:57;;;;;;;1.85;1.40;;;;;;;21.86;33.04;100250.56;5007578;28;20045;-80
2021/06/19 06:23:24;;;;;;;2.38;1.40;;;;;;;22.11;32.77;100255.91;5039218;28;20044;-79
2021/06/19 06:25:50;;;;;;;7.00;1.80;;;;;;;22.19;32.98;100247.75;5039010;28;20064;-78
2021/06/19 06:28:17;;;;;;;3.38;1.50;;;;;;;22.40;33.16;100253.44;5024248;28;20415;-81
2021/06/19 06:30:44;;;;;;;2.45;1.38;;;;;;;22.36;32.81;100243.09;5040326;28;20045;-85
2021/06/19 06:33:10;;;;;;;2.78;0.88;;;;;;;22.42;32.94;100240.53;5038424;28;20491;-79
2021/06/19 06:35:36;;;;;;;2.90;1.30;;;;;;;22.68;32.03;100239.34;5055392;28;20151;-80
2021/06/19 06:38:02;;;;;;;23.33;1.83;;;;;;;22.41;32.36;100255.16;5022462;28;20560;-79
2021/06/19 06:40:28;;;;;;;1.85;1.00;;;;;;;22.42;31.99;100245.97;5055419;28;20056;-80
2021/06/19 06:42:54;;;;;;;4.70;1.10;;;;;;;22.38;33.08;100247.34;5055411;28;20048;-79
2021/06/19 06:45:20;;;;;;;6.65;1.30;;;;;;;22.47;31.80;100240.81;5073639;28;20044;-79
2021/06/19 06:47:46;;;;;;;2.05;1.20;;;;;;;22.63;31.62;100230.88;5021875;28;20040;-78
2021/06/19 06:50:12;;;;;;;3.72;1.30;;;;;;;22.57;32.02;100242.47;5022307;28;20523;-81
2021/06/19 06:52:39;;;;;;;6.78;1.33;;;;;;;22.57;32.24;100242.47;5022306;28;20032;-80
2021/06/19 06:55:05;;;;;;;7.13;1.30;;;;;;;22.54;32.26;100236.34;5038753;28;20426;-85
2021/06/19 06:57:32;;;;;;;2.67;1.10;;;;;;;22.39;31.86;100234.56;5038222;28;20043;-79
2021/06/19 06:59:58;;;;;;;1.38;1.10;;;;;;;22.38;31.87;100228.28;5072893;28;20041;-81
2021/06/19 07:02:24;;;;;;;3.28;1.17;;;;;;;22.59;32.10;100224.91;5038431;28;20036;-81
2021/06/19 07:04:50;;;;;;;5.80;1.25;;;;;;;22.89;31.25;100220.47;5022199;28;20060;-80
2021/06/19 07:07:16;;;;;;;1.20;1.00;;;;;;;23.07;31.05;100213.91;5057518;28;20071;-81
2021/06/19 07:09:42;;;;;;;2.00;1.10;;;;;;;23.11;31.11;100212.50;5007044;28;20469;-79
2021/06/19 07:12:09;;;;;;;2.53;1.10;;;;;;;22.98;31.26;100213.97;5038937;28;20052;-79
2021/06/19 07:14:35;;;;;;;1.50;1.10;;;;;;;22.67;31.42;100194.88;5005871;28;20037;-81
2021/06/19 07:17:01;;;;;;;5.85;1.63;;;;;;;22.72;31.93;100216.19;5055167;28;20063;-78
2021/06/19 07:19:27;;;;;;;3.90;1.10;;;;;;;22.66;31.35;100192.34;5006138;28;20116;-79
2021/06/19 07:21:53;;;;;;;1.05;0.93;;;;;;;22.53;31.39;100210.16;5038743;28;20044;-80
2021/06/19 07:24:20;;;;;;;1.13;1.02;;;;;;;22.62;31.65;100223.72;5022301;28;20131;-81
2021/06/19 07:26:48;;;;;;;4.13;1.10;;;;;;;22.65;32.20;100207.03;5038569;28;20086;-82
2021/06/19 07:29:14;;;;;;;1.67;1.20;;;;;;;22.95;32.08;100203.44;5006119;28;20051;-79
2021/06/19 07:31:40;;;;;;;5.53;1.30;;;;;;;23.41;31.68;100203.38;5005412;28;20046;-79
2021/06/19 07:34:06;;;;;;;5.18;1.50;;;;;;;23.34;31.94;100179.75;5038431;28;20048;-81
2021/06/19 07:36:32;;;;;;;5.00;1.40;;;;;;;23.25;31.36;100192.63;5021795;28;20483;-80
2021/06/19 07:38:58;;;;;;;2.17;1.00;;;;;;;23.48;31.09;100182.50;5038261;28;20041;-79
2021/06/19 07:41:24;;;;;;;2.10;1.30;;;;;;;23.65;30.70;100183.16;5054319;28;20048;-79
2021/06/19 07:43:51;;;;;;;2.97;1.08;;;;;;;23.75;31.08;100188.38;5005719;28;20048;-79
2021/06/19 07:46:17;;;;;;;1.10;0.98;;;;;;;23.81;30.84;100187.66;5021724;28;20052;-81
2021/06/19 07:48:43;;;;;;;8.60;1.55;;;;;;;23.89;31.12;100160.25;5071257;28;20048;-80
2021/06/19 07:51:09;;;;;;;3.25;1.00;;;;;;;24.12;30.51;100162.00;5022147;28;20076;-80
2021/06/19 07:53:35;;;;;;;3.30;1.10;;;;;;;23.95;30.07;100181.31;5038676;28;20048;-81
2021/06/19 07:56:01;;;;;;;6.30;1.25;;;;;;;24.05;29.86;100177.47;5021680;28;20045;-80
2021/06/19 07:58:27;;;;;;;1.77;1.02;;;;;;;24.04;29.42;100168.44;5038228;28;20045;-79
2021/06/19 08:00:53;;;;;;;4.10;1.10;;;;;;;23.85;30.03;100161.66;5021303;28;20049;-79
2021/06/19 08:03:19;;;;;;;9.77;1.25;;;;;;;23.78;29.86;100148.97;5021942;28;20051;-80
2021/06/19 08:05:47;;;;;;;3.58;0.95;;;;;;;23.95;29.93;100166.81;5054572;28;20062;-79
2021/06/19 08:08:14;;;;;;;4.97;1.17;;;;;;;24.15;29.86;100156.16;5022060;28;20048;-78
2021/06/19 08:10:40;;;;;;;6.50;1.08;;;;;;;24.17;30.04;100154.06;5055191;28;20475;-79
2021/06/19 08:13:06;;;;;;;5.88;1.38;;;;;;;24.09;30.22;100156.91;5021321;28;20052;-79
2021/06/19 08:15:34;;;;;;;4.30;1.20;;;;;;;24.25;29.86;100145.75;5038404;28;20052;-80
2021/06/19 08:18:02;;;;;;;6.10;1.30;;;;;;;24.02;30.37;100156.00;5038043;28;20495;-80
2021/06/19 08:20:28;;;;;;;3.75;1.13;;;;;;;24.32;29.28;100152.16;5037902;28;20055;-80
2021/06/19 08:22:54;;;;;;;4.82;1.23;;;;;;;24.37;29.38;100149.72;5021458;28;20091;-80
2021/06/19 08:25:20;;;;;;;3.60;1.05;;;;;;;24.64;29.30;100144.56;5054440;28;20041;-81
2021/06/19 08:27:46;;;;;;;2.78;1.10;;;;;;;24.94;29.28;100132.44;5021556;28;20064;-79
2021/06/19 08:30:13;;;;;;;3.17;1.50;;;;;;;25.16;28.92;100122.34;5057388;28;20071;-79
2021/06/19 08:32:39;;;;;;;5.22;1.25;;;;;;;25.24;29.14;100137.78;5015646;28;20528;-79
2021/06/19 08:35:06;;;;;;;0.80;0.80;;;;;;;25.43;29.07;100117.91;5055040;28;20049;-80
2021/06/19 08:37:32;;;;;;;3.00;1.50;;;;;;;25.85;29.04;100121.53;5041088;28;20509;-79
2021/06/19 08:39:58;;;;;;;9.07;1.60;;;;;;;25.83;29.01;100106.34;5008817;28;20123;-79
2021/06/19 08:42:25;;;;;;;2.42;1.00;;;;;;;25.93;28.36;100123.25;5056712;28;20074;-81
2021/06/19 08:44:51;;;;;;;1.98;0.93;;;;;;;25.42;28.33;100110.72;5041727;28;20072;-79
2021/06/19 08:47:17;;;;;;;4.85;0.88;;;;;;;25.23;28.90;100113.31;5021677;28;20036;-79
2021/06/19 08:49:46;;;;;;;3.75;1.13;;;;;;;25.05;29.16;100108.31;5040790;28;20415;-82
2021/06/19 08:52:12;;;;;;;3.08;1.10;;;;;;;25.22;28.84;100103.44;5008581;28;20082;-79
2021/06/19 08:54:41;;;;;;;6.35;1.00;;;;;;;25.43;28.92;100096.00;5075650;28;20040;-82
2021/06/19 08:57:11;;;;;;;2.15;0.80;;;;;;;25.90;28.26;100091.63;5025742;28;20064;-82
2021/06/19 08:59:37;;;;;;;4.80;1.00;;;;;;;25.71;28.75;100092.38;5050240;28;20047;-82
2021/06/19 09:02:05;;;;;;;2.88;1.00;;;;;;;25.98;27.65;100087.88;5078321;28;20048;-82
2021/06/19 09:04:55;;;;;;;8.40;1.00;;;;;;;26.03;28.03;100074.44;5061437;28;20067;-80
2021/06/19 09:07:47;;;;;;;14.98;1.02;;;;;;;26.63;27.40;100082.81;5045789;28;20044;-83
2021/06/19 09:10:32;;;;;;;5.95;1.15;;;;;;;26.75;27.88;100078.38;5061036;28;20048;-82
2021/06/19 09:12:59;;;;;;;2.75;1.10;;;;;;;26.79;27.05;100071.44;5044723;28;20075;-90
2021/06/19 09:15:27;;;;;;;1.27;0.85;;;;;;;26.94;27.38;100059.41;5078395;28;20579;-84
2021/06/19 09:18:16;;;;;;;6.97;1.95;;;;;;;26.66;27.97;100074.16;5066024;28;20070;-83
2021/06/19 09:20:52;;;;;;;3.63;1.02;;;;;;;26.62;28.47;100053.69;5051809;28;20134;-80
2021/06/19 09:23:38;;;;;;;3.53;0.80;;;;;;;26.81;27.91;100054.75;5097506;28;20078;-79
2021/06/19 09:26:23;;;;;;;3.08;1.08;;;;;;;27.21;27.33;100055.59;5062059;28;20055;-77
2021/06/19 09:29:05;;;;;;;1.88;1.13;;;;;;;27.10;27.70;100047.97;5028004;28;20048;-77
2021/06/19 09:31:52;;;;;;;3.47;1.13;;;;;;;27.08;27.57;100050.94;5059982;28;20135;-79
2021/06/19 09:34:25;;;;;;;2.78;1.10;;;;;;;27.29;27.99;100044.38;5060863;28;20048;-78
2021/06/19 09:37:02;;;;;;;3.40;1.00;;;;;;;26.90;28.36;100036.19;5043823;28;20066;-78
2021/06/19 09:39:30;;;;;;;1.70;1.20;;;;;;;26.88;28.63;100006.22;5044885;28;20181;-80
2021/06/19 09:42:03;;;;;;;5.20;1.20;;;;;;;27.44;28.76;100021.31;5060532;28;20044;-79
2021/06/19 09:44:39;;;;;;;3.03;0.98;;;;;;;27.84;27.97;100011.06;5044161;28;20432;-79
2021/06/19 09:47:06;;;;;;;9.57;1.25;;;;;;;28.26;27.64;100004.03;5043548;28;20044;-80
2021/06/19 09:49:35;;;;;;;10.48;1.50;;;;;;;28.29;27.78;100025.59;5060234;28;20043;-82
2021/06/19 09:52:02;;;;;;;3.67;1.30;;;;;;;28.41;27.69;100014.75;5060637;28;20054;-88
2021/06/19 09:54:28;;;;;;;4.45;1.27;;;;;;;28.64;27.25;100025.13;5061149;28;20573;-82
2021/06/19 09:56:57;;;;;;;1.25;1.15;;;;;;;28.32;27.35;99997.66;5044571;28;20050;-86
2021/06/19 09:59:36;;;;;;;5.53;1.45;;;;;;;28.16;27.70;100014.66;5060776;28;20363;-80
2021/06/19 10:02:03;;;;;;;5.18;1.00;;;;;;;28.08;27.56;100009.44;5060800;28;20429;-82
2021/06/19 10:04:30;;;;;;;8.60;1.20;;;;;;;28.58;27.27;99995.75;5026768;28;20051;-84
2021/06/19 10:06:57;;;;;;;3.03;0.90;;;;;;;29.01;26.54;100001.34;5044510;28;20043;-88
2021/06/19 10:09:23;;;;;;;3.35;1.27;;;;;;;29.45;26.32;100015.03;5027492;28;20105;-85
2021/06/19 10:11:51;;;;;;;3.80;1.02;;;;;;;29.37;26.22;100005.16;5060622;28;20087;-87
2021/06/19 10:14:18;;;;;;;1.42;1.00;;;;;;;29.17;26.47;100010.91;5061337;28;20072;-87
2021/06/19 10:16:49;;;;;;;1.33;1.03;;;;;;;29.20;26.33;99977.41;5077975;28;20048;-84
2021/06/19 10:19:18;;;;;;;2.30;1.10;;;;;;;29.52;26.30;99985.50;5045377;28;20050;-85
2021/06/19 10:21:45;;;;;;;4.75;1.02;;;;;;;29.61;25.63;99989.66;5045497;28;20132;-85
2021/06/19 10:24:11;;;;;;;4.95;1.10;;;;;;;30.12;25.86;99982.78;5060779;28;20052;-82
2021/06/19 10:26:38;;;;;;;2.20;0.93;;;;;;;30.41;24.77;99983.03;5044346;28;20109;-82
2021/06/19 10:29:04;;;;;;;5.63;0.90;;;;;;;30.83;24.65;99978.28;5061218;28;20111;-83
2021/06/19 10:31:37;;;;;;;4.72;1.10;;;;;;;30.59;24.46;99960.84;5077408;28;20048;-82
2021/06/19 10:34:29;;;;;;;3.00;1.02;;;;;;;30.92;24.56;99973.25;5029396;28;20101;-81
2021/06/19 10:36:56;;;;;;;7.57;1.00;;;;;;;30.72;23.99;99957.00;5061935;28;20047;-81
2021/06/19 10:39:44;;;;;;;1.55;0.95;;;;;;;30.59;24.11;99960.03;5043264;28;20620;-81
2021/06/19 10:42:16;;;;;;;6.93;0.98;;;;;;;30.45;24.13;99975.94;5044689;28;20399;-82
2021/06/19 10:44:58;;;;;;;7.82;1.42;;;;;;;30.55;23.67;99956.06;5058920;28;20581;-82
2021/06/19 10:47:32;;;;;;;3.25;0.82;;;;;;;30.09;24.07;99936.41;5029102;28;20047;-81
2021/06/19 10:50:00;;;;;;;1.27;0.90;;;;;;;30.41;23.92;99944.41;5062130;28;20445;-82
2021/06/19 10:52:33;;;;;;;;;;;;;;;30.67;24.26;99960.50;5044847;28;20396;-81
2021/06/19 10:55:11;;;;;;;2.45;1.00;;;;;;;30.45;23.95;99940.91;5059939;28;20350;-81
2021/06/19 10:57:48;;;;;;;4.22;0.80;;;;;;;31.26;23.85;99935.63;5042863;28;20048;-82
2021/06/19 11:00:44;;;;;;;6.43;1.10;;;;;;;31.85;22.96;99933.53;5059224;28;20040;-82
2021/06/19 11:03:11;;;;;;;4.15;1.00;;;;;;;31.15;23.77;99925.44;5059938;28;20380;-82
2021/06/19 11:05:40;;;;;;;5.35;1.10;;;;;;;30.76;24.16;99935.31;5025034;28;20116;-83
2021/06/19 11:08:07;;;;;;;1.90;0.85;;;;;;;30.23;24.27;99939.81;5074270;28;20036;-82
2021/06/19 11:10:45;;;;;;;4.30;0.93;;;;;;;30.92;24.14;99924.41;5024887;28;20143;-81
2021/06/19 11:13:32;;;;;;;5.97;0.95;;;;;;;31.58;23.28;99922.19;5058590;28;20048;-81
2021/06/19 11:16:02;;;;;;;1.83;1.00;;;;;;;31.92;23.03;99914.03;5041630;28;20097;-82
2021/06/19 11:18:50;;;;;;;1.05;0.80;;;;;;;31.34;23.35;99910.41;5042150;28;20051;-81
2021/06/19 11:21:38;;;;;;;;;;;;;;;31.31;23.59;99912.81;5071412;28;20044;-80
2021/06/19 11:24:04;;;;;;;6.97;0.88;;;;;;;31.44;23.24;99904.22;5057825;28;19923;-81
2021/06/19 11:26:54;;;;;;;7.88;1.10;;;;;;;31.87;22.86;99919.47;5056810;28;20036;-82
2021/06/19 11:29:42;;;;;;;5.25;0.88;;;;;;;32.45;21.95;99898.91;5021986;28;20495;-82